Marseillais 6 — FQSJ — position and weather

sailwx.info

Track history (hours):
 
Tides and Currents Weather Stations Pressure Air Temp Water Temp Dewpoint Dewpoint Depression Visibility Wind Speed Wind Dir Waves Ship Positions

Marseillais 6

Last reported at 2018-Apr-26 04:00 UTC. Time now 2018-Apr-26 03:59 UTC.
Position N 43°24' E 004°59'.

Length 35 m; draft 5 m.

Type: Tug. MMSI: 227016900.

Date/timePositionNaut miles runAvg speedWind from/ knotsBaromVisibWave heightAir tempDewpointWater temp
2018-Apr-26 04:00N 43°24' E 004°59'0 0.0
2018-Apr-26 03:30N 43°24' E 004°59'0 0.0
2018-Apr-26 03:00N 43°24' E 004°59'0 0.0
2018-Apr-26 02:30N 43°24' E 004°59'0 0.0
2018-Apr-26 02:00N 43°24' E 004°59'0 0.0
2018-Apr-26 01:30N 43°24' E 004°59'0 0.0
2018-Apr-26 01:00N 43°24' E 004°59'0 0.0
2018-Apr-26 00:30N 43°24' E 004°59'0 0.0
2018-Apr-26 00:00N 43°24' E 004°59'0 0.0
2018-Apr-25 23:30N 43°24' E 004°59'0 0.0
2018-Apr-25 23:00N 43°24' E 004°59'0 0.0
2018-Apr-25 22:30N 43°24' E 004°59'0 0.0
2018-Apr-25 22:00N 43°24' E 004°59'0 0.0
2018-Apr-25 21:30N 43°24' E 004°59'0 0.0
2018-Apr-25 21:00N 43°24' E 004°59'0 0.0
2018-Apr-25 20:30N 43°24' E 004°59'0 0.0
2018-Apr-25 20:00N 43°24' E 004°59'1 2.8
2018-Apr-25 19:30N 43°24' E 004°57'5 9.0
2018-Apr-25 18:59N 43°25' E 004°51'0 0.2
2018-Apr-25 18:28N 43°25' E 004°51'0 0.0
2018-Apr-25 18:00N 43°25' E 004°51'510.8
2018-Apr-25 17:30N 43°24' E 004°58'1 2.2
2018-Apr-25 17:00N 43°24' E 004°60'0 0.7
2018-Apr-25 16:30N 43°24' E 004°59'0 0.0
2018-Apr-25 16:00N 43°24' E 004°59'0 0.0
2018-Apr-25 15:30N 43°24' E 004°59'4 8.5
2018-Apr-25 15:00N 43°24' E 004°53'2 3.4
2018-Apr-25 14:30N 43°25' E 004°51'0 0.1
2018-Apr-25 14:00N 43°25' E 004°51'4 8.5
2018-Apr-25 13:30N 43°24' E 004°57'2 3.0
2018-Apr-25 12:58N 43°24' E 004°59'0 0.0
2018-Apr-25 12:30N 43°24' E 004°59'0 0.0
2018-Apr-25 12:00N 43°24' E 004°59'0 0.0
2018-Apr-25 11:30N 43°24' E 004°59'0 0.0
2018-Apr-25 11:00N 43°24' E 004°59'1 1.0
2018-Apr-25 10:28N 43°23' E 004°59'1 1.7
2018-Apr-25 10:00N 43°24' E 004°60'0 0.7
2018-Apr-25 09:28N 43°24' E 004°59'0 0.0
2018-Apr-25 09:00N 43°24' E 004°59'0 0.0
2018-Apr-25 08:30N 43°24' E 004°59'0 0.0
2018-Apr-25 07:53N 43°24' E 004°59'0 0.0
2018-Apr-25 07:30N 43°24' E 004°59'0 0.0
2018-Apr-25 07:00N 43°24' E 004°59'0 0.0
2018-Apr-25 06:30N 43°24' E 004°59'0 0.0
2018-Apr-25 05:59N 43°24' E 004°59'0 0.0
2018-Apr-25 05:27N 43°24' E 004°59'0 0.0
2018-Apr-25 05:00N 43°24' E 004°59'0 0.0
2018-Apr-25 04:30N 43°24' E 004°59'0 0.0
2018-Apr-25 04:00N 43°24' E 004°59'0 0.0
2018-Apr-25 03:30N 43°24' E 004°59'0 0.0
2018-Apr-25 03:00N 43°24' E 004°59'0 0.0
2018-Apr-25 02:30N 43°24' E 004°59'0 0.0
2018-Apr-25 02:00N 43°24' E 004°59'0 0.0
2018-Apr-25 01:30N 43°24' E 004°59'0 0.0
2018-Apr-25 01:00N 43°24' E 004°59'0 0.0
2018-Apr-25 00:30N 43°24' E 004°59'0 0.0
2018-Apr-25 00:00N 43°24' E 004°59'0 0.0
2018-Apr-24 23:30N 43°24' E 004°59'0 0.0
2018-Apr-24 23:00N 43°24' E 004°59'0 0.0
2018-Apr-24 22:30N 43°24' E 004°59'0 0.0
2018-Apr-24 22:00N 43°24' E 004°59'0 0.0
2018-Apr-24 21:29N 43°24' E 004°59'0 0.0
2018-Apr-24 21:00N 43°24' E 004°59'0 0.0
2018-Apr-24 20:30N 43°24' E 004°59'0 0.0
2018-Apr-24 20:00N 43°24' E 004°59'0 0.0
2018-Apr-24 19:30N 43°24' E 004°59'0 0.0
2018-Apr-24 19:00N 43°24' E 004°59'0 0.0
2018-Apr-24 18:28N 43°24' E 004°59'0 0.0
2018-Apr-24 18:00N 43°24' E 004°59'0 0.0
2018-Apr-24 17:30N 43°24' E 004°59'0 0.0
2018-Apr-24 17:00N 43°24' E 004°59'0 0.0
2018-Apr-24 16:28N 43°24' E 004°59'1 1.2
2018-Apr-24 16:00N 43°24' E 004°60'0 0.2
2018-Apr-24 15:30N 43°24' E 004°60'1 1.7
2018-Apr-24 15:00N 43°23' E 004°59'0 0.9
2018-Apr-24 14:30N 43°24' E 004°59'0 0.0
2018-Apr-24 14:00N 43°24' E 004°59'0 0.0
2018-Apr-24 13:30N 43°24' E 004°59'0 0.0
2018-Apr-24 13:00N 43°24' E 004°59'0 0.0
2018-Apr-24 12:30N 43°24' E 004°59'0 0.0
2018-Apr-24 11:59N 43°24' E 004°59'0 0.0
2018-Apr-24 11:30N 43°24' E 004°59'0 0.0
2018-Apr-24 11:00N 43°24' E 004°59'0 0.0
2018-Apr-24 10:30N 43°24' E 004°59'0 0.0
2018-Apr-24 09:58N 43°24' E 004°59'0 0.0
2018-Apr-24 09:29N 43°24' E 004°59'0 0.0
2018-Apr-24 09:00N 43°24' E 004°59'0 0.0
2018-Apr-24 08:30N 43°24' E 004°59'0 0.0
2018-Apr-24 08:00N 43°24' E 004°59'0 0.0
2018-Apr-24 07:29N 43°24' E 004°59'0 0.0
2018-Apr-24 06:59N 43°24' E 004°59'0 0.0
2018-Apr-24 06:30N 43°24' E 004°59'0 0.0
2018-Apr-24 06:00N 43°24' E 004°59'1 1.2
2018-Apr-24 05:30N 43°23' E 004°59'1 1.9
2018-Apr-24 04:59N 43°24' E 004°60'3 6.8
2018-Apr-24 04:30N 43°24' E 004°55'2 3.4
2018-Apr-24 03:54N 43°26' E 004°54'0 0.0
2018-Apr-24 03:28N 43°26' E 004°54'0 0.0
2018-Apr-24 03:00N 43°26' E 004°54'0 0.0
2018-Apr-24 02:30N 43°26' E 004°54'0 0.0
2018-Apr-24 02:00N 43°26' E 004°54'0 0.0
2018-Apr-24 01:29N 43°26' E 004°54'0 0.0
2018-Apr-24 00:54N 43°26' E 004°54'0 0.0
2018-Apr-24 00:28N 43°26' E 004°54'0 0.0
2018-Apr-23 23:49N 43°26' E 004°54'0 0.0
2018-Apr-23 23:28N 43°26' E 004°54'0 0.0
2018-Apr-23 22:21N 43°26' E 004°54'0 0.0
2018-Apr-23 22:00N 43°26' E 004°54'0 0.0
2018-Apr-23 21:24N 43°26' E 004°54'0 0.0
2018-Apr-23 20:59N 43°26' E 004°54'0 0.0
2018-Apr-23 20:26N 43°26' E 004°54'0 0.0
2018-Apr-23 19:56N 43°26' E 004°54'0 0.0
2018-Apr-23 19:29N 43°26' E 004°54'0 0.0
2018-Apr-23 18:54N 43°26' E 004°54'0 0.0
2018-Apr-23 18:26N 43°26' E 004°54'0 0.0
2018-Apr-23 17:53N 43°26' E 004°54'0 0.0
2018-Apr-23 17:30N 43°26' E 004°54'0 0.0
2018-Apr-23 16:42N 43°26' E 004°54'0 0.0
2018-Apr-23 16:19N 43°26' E 004°54'0 0.0
2018-Apr-23 14:03N 43°26' E 004°54'0 0.0
2018-Apr-23 13:56N 43°26' E 004°54'0 0.0
2018-Apr-23 12:33N 43°26' E 004°54'0 0.0
2018-Apr-23 12:26N 43°26' E 004°54'0 0.0
2018-Apr-23 10:33N 43°26' E 004°54'0 0.0
2018-Apr-23 10:17N 43°26' E 004°54'0 1.7
2018-Apr-23 10:00N 43°25' E 004°53'4 8.5
2018-Apr-23 09:30N 43°23' E 004°59'1 1.8
2018-Apr-23 09:00N 43°24' E 004°60'0 0.4
2018-Apr-23 08:30N 43°24' E 004°59'2 4.4
2018-Apr-23 08:00N 43°24' E 004°56'3 5.2
2018-Apr-23 07:31N 43°25' E 004°53'0 0.1
2018-Apr-23 06:59N 43°25' E 004°53'1 2.2
2018-Apr-23 06:30N 43°24' E 004°54'2 3.1
2018-Apr-23 06:00N 43°26' E 004°54'0 0.0
2018-Apr-23 05:29N 43°26' E 004°54'0 0.0
2018-Apr-23 04:55N 43°26' E 004°54'0 0.0
2018-Apr-23 04:28N 43°26' E 004°54'0 0.0
2018-Apr-23 04:00N 43°26' E 004°54'0 0.0
2018-Apr-23 03:29N 43°26' E 004°54'0 0.0
2018-Apr-23 03:00N 43°26' E 004°54'0 0.0
2018-Apr-23 02:30N 43°26' E 004°54'0 0.0
2018-Apr-23 02:00N 43°26' E 004°54'0 0.0
2018-Apr-23 01:30N 43°26' E 004°54'1 1.4
2018-Apr-23 01:00N 43°25' E 004°53'0 0.1
2018-Apr-23 00:30N 43°25' E 004°53'1 1.4
2018-Apr-23 00:00N 43°26' E 004°54'0 0.0
2018-Apr-22 23:27N 43°26' E 004°54'0 0.0
2018-Apr-22 22:56N 43°26' E 004°54'0 0.0
2018-Apr-22 22:20N 43°26' E 004°54'0 0.0
2018-Apr-22 21:59N 43°26' E 004°54'0 0.0
2018-Apr-22 21:29N 43°26' E 004°54'0 0.0
2018-Apr-22 19:52N 43°26' E 004°54'0 0.0
2018-Apr-22 19:30N 43°26' E 004°54'0 0.0
2018-Apr-22 18:34N 43°26' E 004°54'0 3.3
2018-Apr-22 18:30N 43°26' E 004°54'4 8.8
2018-Apr-22 18:00N 43°24' E 004°59'1 1.1
2018-Apr-22 17:30N 43°24' E 004°60'1 2.3
2018-Apr-22 17:00N 43°23' E 004°58'4 8.0
2018-Apr-22 16:30N 43°25' E 004°53'1 0.3
2018-Apr-22 13:25N 43°26' E 004°54'0 0.0
2018-Apr-22 11:50N 43°26' E 004°54'2 7.4
2018-Apr-22 11:30N 43°25' E 004°51'0 0.4
2018-Apr-22 10:59N 43°25' E 004°51'1 2.6
2018-Apr-22 10:30N 43°24' E 004°52'2 4.1
2018-Apr-22 10:00N 43°26' E 004°54'0 0.0
2018-Apr-22 09:16N 43°26' E 004°54'0 0.0
2018-Apr-22 08:57N 43°26' E 004°54'1 1.8
2018-Apr-22 08:30N 43°25' E 004°53'0 0.1
2018-Apr-22 08:00N 43°25' E 004°53'1 1.7
2018-Apr-22 07:30N 43°24' E 004°54'1 2.7
2018-Apr-22 06:58N 43°26' E 004°54'0 0.0
2018-Apr-22 06:30N 43°26' E 004°54'0 0.0
2018-Apr-22 06:00N 43°26' E 004°54'0 0.0
2018-Apr-22 05:26N 43°26' E 004°54'0 0.0
2018-Apr-22 05:00N 43°26' E 004°54'0 0.0
2018-Apr-22 04:30N 43°26' E 004°54'1 2.9
2018-Apr-22 04:00N 43°24' E 004°53'2 4.3
2018-Apr-22 03:30N 43°25' E 004°50'2 3.9
2018-Apr-22 02:59N 43°24' E 004°53'2 3.7
2018-Apr-22 02:29N 43°26' E 004°54'0 0.0
2018-Apr-22 02:00N 43°26' E 004°54'0 0.0
2018-Apr-22 01:30N 43°26' E 004°54'0 0.0
2018-Apr-22 01:00N 43°26' E 004°54'0 0.0
2018-Apr-22 00:27N 43°26' E 004°54'0 0.0
2018-Apr-21 23:57N 43°26' E 004°54'0 0.0
2018-Apr-21 23:27N 43°26' E 004°54'0 0.0
2018-Apr-21 23:00N 43°26' E 004°54'0 0.0
2018-Apr-21 22:30N 43°26' E 004°54'0 0.0
2018-Apr-21 22:00N 43°26' E 004°54'0 0.0
2018-Apr-21 21:30N 43°26' E 004°54'0 0.0
2018-Apr-21 20:59N 43°26' E 004°54'0 0.0
2018-Apr-21 20:30N 43°26' E 004°54'0 0.0
2018-Apr-21 20:00N 43°26' E 004°54'0 0.0
2018-Apr-21 19:30N 43°26' E 004°54'0 0.0
2018-Apr-21 18:59N 43°26' E 004°54'0 0.0
2018-Apr-21 18:29N 43°26' E 004°54'0 0.0
2018-Apr-21 18:00N 43°26' E 004°54'0 0.0
2018-Apr-21 17:28N 43°26' E 004°54'3 5.5
2018-Apr-21 17:00N 43°25' E 004°51'0 0.1
2018-Apr-21 16:26N 43°25' E 004°51'2 4.6
2018-Apr-21 16:00N 43°24' E 004°53'2 3.0
2018-Apr-21 15:29N 43°26' E 004°54'0 0.0
2018-Apr-21 15:00N 43°26' E 004°54'0 0.0
2018-Apr-21 14:30N 43°26' E 004°54'0 0.0
2018-Apr-21 13:59N 43°26' E 004°54'0 0.0
2018-Apr-21 13:29N 43°26' E 004°54'0 0.0
2018-Apr-21 13:00N 43°26' E 004°54'0 0.0
2018-Apr-21 12:30N 43°26' E 004°54'0 0.0
2018-Apr-21 12:00N 43°26' E 004°54'0 0.0
2018-Apr-21 11:30N 43°26' E 004°54'0 0.0
2018-Apr-21 11:00N 43°26' E 004°54'0 0.0
2018-Apr-21 10:30N 43°26' E 004°54'0 0.0
2018-Apr-21 10:00N 43°26' E 004°54'0 0.0
2018-Apr-21 09:30N 43°26' E 004°54'0 0.0
2018-Apr-21 08:58N 43°26' E 004°54'0 0.0
2018-Apr-21 08:27N 43°26' E 004°54'0 0.0
2018-Apr-21 07:31N 43°26' E 004°54'0 0.0
2018-Apr-21 07:17N 43°26' E 004°54'0 0.0
2018-Apr-21 07:00N 43°26' E 004°54'0 0.0
2018-Apr-21 06:29N 43°26' E 004°54'0 0.0
2018-Apr-21 05:56N 43°26' E 004°54'0 0.0
2018-Apr-21 05:30N 43°26' E 004°54'0 0.0
2018-Apr-21 05:00N 43°26' E 004°54'0 0.0
2018-Apr-21 04:30N 43°26' E 004°54'0 0.0
2018-Apr-21 03:48N 43°26' E 004°54'0 0.0
2018-Apr-21 03:27N 43°26' E 004°54'0 0.0
2018-Apr-21 03:00N 43°26' E 004°54'0 0.0
2018-Apr-21 02:30N 43°26' E 004°54'0 0.0
2018-Apr-21 01:56N 43°26' E 004°54'0 0.0
2018-Apr-21 01:30N 43°26' E 004°54'0 0.0
2018-Apr-21 01:00N 43°26' E 004°54'0 0.0
2018-Apr-21 00:30N 43°26' E 004°54'0 0.0
2018-Apr-20 23:57N 43°26' E 004°54'0 0.0
2018-Apr-20 23:24N 43°26' E 004°54'1 2.0
2018-Apr-20 23:00N 43°25' E 004°53'1 1.8
2018-Apr-20 22:30N 43°26' E 004°52'0 0.6
2018-Apr-20 22:00N 43°26' E 004°52'2 3.2
2018-Apr-20 21:30N 43°24' E 004°53'1 2.2
2018-Apr-20 21:00N 43°25' E 004°53'1 1.5
2018-Apr-20 20:30N 43°26' E 004°54'0 0.0
2018-Apr-20 19:38N 43°26' E 004°54'0 0.0
2018-Apr-20 19:27N 43°26' E 004°54'0 0.0
2018-Apr-20 19:00N 43°26' E 004°54'0 0.0
2018-Apr-20 18:28N 43°26' E 004°54'0 0.0
2018-Apr-20 17:57N 43°26' E 004°54'0 0.0
2018-Apr-20 17:30N 43°26' E 004°54'0 0.0
2018-Apr-20 16:33N 43°26' E 004°54'0 0.0
2018-Apr-20 16:04N 43°26' E 004°54'0 0.0
2018-Apr-20 15:58N 43°26' E 004°54'2 3.8
2018-Apr-20 15:30N 43°24' E 004°53'2 4.3
2018-Apr-20 15:00N 43°25' E 004°50'3 5.1
2018-Apr-20 14:30N 43°26' E 004°54'0 0.4
2018-Apr-20 13:57N 43°26' E 004°54'0 0.0
2018-Apr-20 13:30N 43°26' E 004°54'0 0.0
2018-Apr-20 12:58N 43°26' E 004°54'0 0.0
2018-Apr-20 12:30N 43°26' E 004°54'0 0.0
2018-Apr-20 12:00N 43°26' E 004°54'0 0.0
2018-Apr-20 11:29N 43°26' E 004°54'0 0.0
2018-Apr-20 10:58N 43°26' E 004°54'0 0.0
2018-Apr-20 10:30N 43°26' E 004°54'0 0.0
2018-Apr-20 09:47N 43°26' E 004°54'0 0.0
2018-Apr-20 09:30N 43°26' E 004°54'0 0.0
2018-Apr-20 08:58N 43°26' E 004°54'0 0.0
2018-Apr-20 08:28N 43°26' E 004°54'0 0.0
2018-Apr-20 07:57N 43°26' E 004°54'0 0.0
2018-Apr-20 07:30N 43°26' E 004°54'0 0.0
2018-Apr-20 07:00N 43°26' E 004°54'0 0.0
2018-Apr-20 06:28N 43°26' E 004°54'0 0.0
2018-Apr-20 06:00N 43°26' E 004°54'0 0.0
2018-Apr-20 05:07N 43°26' E 004°54'0 0.0
2018-Apr-20 04:58N 43°26' E 004°54'0 0.0
2018-Apr-20 04:29N 43°26' E 004°54'0 0.0
2018-Apr-20 03:47N 43°26' E 004°54'0 0.0
2018-Apr-20 03:29N 43°26' E 004°54'0 0.0
2018-Apr-20 02:56N 43°26' E 004°54'0 0.0
2018-Apr-20 02:28N 43°26' E 004°54'0 0.0
2018-Apr-20 01:57N 43°26' E 004°54'0 0.0
2018-Apr-20 01:25N 43°26' E 004°54'0 0.0
2018-Apr-20 01:00N 43°26' E 004°54'0 0.0
2018-Apr-20 00:30N 43°26' E 004°54'0 0.0
2018-Apr-20 00:00N 43°26' E 004°54'0 0.0
2018-Apr-19 23:30N 43°26' E 004°54'0 0.0
2018-Apr-19 23:00N 43°26' E 004°54'0 0.0
2018-Apr-19 22:30N 43°26' E 004°54'0 0.0
2018-Apr-19 21:58N 43°26' E 004°54'0 0.0
2018-Apr-19 21:30N 43°26' E 004°54'0 0.0
2018-Apr-19 20:59N 43°26' E 004°54'0 0.0
2018-Apr-19 20:26N 43°26' E 004°54'0 0.0
2018-Apr-19 19:56N 43°26' E 004°54'0 0.0
2018-Apr-19 19:27N 43°26' E 004°54'0 0.0
2018-Apr-19 18:59N 43°26' E 004°54'0 0.0
2018-Apr-19 18:30N 43°26' E 004°54'3 5.1
2018-Apr-19 17:59N 43°25' E 004°50'0 0.3
2018-Apr-19 17:30N 43°25' E 004°51'2 4.6
2018-Apr-19 17:00N 43°26' E 004°54'0 0.5
2018-Apr-19 16:28N 43°26' E 004°54'1 1.9
2018-Apr-19 16:00N 43°25' E 004°54'0 0.0
2018-Apr-19 15:30N 43°25' E 004°54'1 1.4
2018-Apr-19 15:00N 43°24' E 004°54'2 3.1
2018-Apr-19 14:30N 43°26' E 004°54'0 0.2
2018-Apr-19 13:55N 43°26' E 004°54'0 0.1
2018-Apr-19 13:30N 43°26' E 004°54'4 7.9
2018-Apr-19 12:59N 43°23' E 004°58'1 2.1
2018-Apr-19 12:30N 43°24' E 004°60'1 2.7
2018-Apr-19 12:00N 43°23' E 004°58'2 3.5
2018-Apr-19 11:30N 43°24' E 004°56'3 5.1
2018-Apr-19 11:00N 43°26' E 004°54'0 0.0
2018-Apr-19 10:27N 43°26' E 004°54'0 0.0
2018-Apr-19 09:59N 43°26' E 004°54'0 0.0
2018-Apr-19 09:30N 43°26' E 004°54'0 0.0
2018-Apr-19 09:00N 43°26' E 004°54'0 0.0
2018-Apr-19 08:30N 43°26' E 004°54'0 0.0
2018-Apr-19 07:59N 43°26' E 004°54'0 0.0
2018-Apr-19 07:29N 43°26' E 004°54'0 0.0
2018-Apr-19 07:00N 43°26' E 004°54'0 0.0
2018-Apr-19 06:30N 43°26' E 004°54'0 0.0
2018-Apr-19 06:00N 43°26' E 004°54'0 0.0
2018-Apr-19 05:30N 43°26' E 004°54'0 0.0
2018-Apr-19 05:00N 43°26' E 004°54'0 0.0
2018-Apr-19 04:30N 43°26' E 004°54'0 0.0
2018-Apr-19 04:01N 43°26' E 004°54'0 0.0
2018-Apr-19 03:30N 43°26' E 004°54'0 0.0
2018-Apr-19 03:00N 43°26' E 004°54'0 0.0
2018-Apr-19 02:30N 43°26' E 004°54'0 0.0
2018-Apr-19 02:00N 43°26' E 004°54'0 0.0
2018-Apr-19 01:30N 43°26' E 004°54'0 0.0
2018-Apr-19 01:00N 43°26' E 004°54'0 0.0
2018-Apr-19 00:30N 43°26' E 004°54'0 0.0
2018-Apr-19 00:00N 43°26' E 004°54'1 1.1
2018-Apr-18 23:30N 43°25' E 004°53'0 0.9
2018-Apr-18 23:00N 43°25' E 004°53'0 0.2
2018-Apr-18 22:30N 43°25' E 004°53'1 1.8
2018-Apr-18 21:57N 43°26' E 004°54'0 0.0
2018-Apr-18 21:30N 43°26' E 004°54'0 0.0
2018-Apr-18 21:00N 43°26' E 004°54'0 0.0
2018-Apr-18 20:30N 43°26' E 004°54'0 0.0
2018-Apr-18 20:00N 43°26' E 004°54'0 0.0
2018-Apr-18 19:30N 43°26' E 004°54'0 0.0
2018-Apr-18 19:00N 43°26' E 004°54'0 0.0
2018-Apr-18 18:28N 43°26' E 004°54'0 0.0
2018-Apr-18 18:00N 43°26' E 004°54'0 0.0
2018-Apr-18 16:39N 43°26' E 004°54'0 0.0
2018-Apr-18 16:30N 43°26' E 004°54'0 0.0
2018-Apr-18 15:54N 43°26' E 004°54'0 0.0
2018-Apr-18 15:29N 43°26' E 004°54'1 2.4
2018-Apr-18 15:00N 43°25' E 004°54'0 0.9
2018-Apr-18 14:30N 43°24' E 004°54'2 0.6
2018-Apr-18 12:06N 43°26' E 004°54'0 0.0
2018-Apr-18 11:54N 43°26' E 004°54'0 0.0
2018-Apr-18 11:30N 43°26' E 004°54'0 0.0
2018-Apr-18 10:58N 43°26' E 004°54'0 0.0
2018-Apr-18 10:29N 43°26' E 004°54'0 0.0
2018-Apr-18 10:00N 43°26' E 004°54'0 0.0
2018-Apr-18 09:30N 43°26' E 004°54'0 0.0
2018-Apr-18 08:59N 43°26' E 004°54'0 0.0
2018-Apr-18 08:29N 43°26' E 004°54'0 0.0
2018-Apr-18 07:44N 43°26' E 004°54'0 0.0
2018-Apr-18 07:26N 43°26' E 004°54'0 0.0
2018-Apr-18 06:59N 43°26' E 004°54'0 0.0
2018-Apr-18 06:30N 43°26' E 004°54'0 0.0
2018-Apr-18 06:00N 43°26' E 004°54'0 0.0
2018-Apr-18 05:30N 43°26' E 004°54'0 0.0
2018-Apr-18 05:00N 43°26' E 004°54'0 0.0
2018-Apr-18 04:30N 43°26' E 004°54'0 0.0
2018-Apr-18 04:00N 43°26' E 004°54'0 0.0
2018-Apr-18 03:30N 43°26' E 004°54'0 0.0
2018-Apr-18 03:00N 43°26' E 004°54'0 0.0
2018-Apr-18 02:30N 43°26' E 004°54'0 0.0
2018-Apr-18 01:59N 43°26' E 004°54'2 4.4
2018-Apr-18 01:30N 43°24' E 004°52'1 1.6
2018-Apr-18 01:01N 43°25' E 004°51'2 4.6
2018-Apr-18 00:30N 43°26' E 004°54'0 0.4
2018-Apr-17 23:59N 43°26' E 004°54'0 0.0
2018-Apr-17 23:30N 43°26' E 004°54'0 0.0
2018-Apr-17 23:00N 43°26' E 004°54'0 0.0
2018-Apr-17 22:30N 43°26' E 004°54'0 0.0
2018-Apr-17 22:00N 43°26' E 004°54'0 0.0
2018-Apr-17 21:30N 43°26' E 004°54'0 0.0
2018-Apr-17 21:00N 43°26' E 004°54'0 0.0
2018-Apr-17 20:30N 43°26' E 004°54'2 4.5
2018-Apr-17 20:00N 43°24' E 004°51'1 2.4
2018-Apr-17 19:30N 43°25' E 004°50'2 3.7
2018-Apr-17 19:00N 43°24' E 004°52'2 3.9
2018-Apr-17 18:29N 43°26' E 004°54'0 0.0
2018-Apr-17 18:00N 43°26' E 004°54'0 0.0
2018-Apr-17 17:29N 43°26' E 004°54'0 0.0
2018-Apr-17 16:18N 43°26' E 004°54'0 0.0
2018-Apr-17 15:57N 43°26' E 004°54'0 0.0
2018-Apr-17 15:20N 43°26' E 004°54'1 4.5
2018-Apr-17 15:00N 43°24' E 004°53'1 1.3
2018-Apr-17 14:30N 43°25' E 004°53'0 0.1
2018-Apr-17 14:00N 43°25' E 004°53'1 2.1
2018-Apr-17 13:30N 43°26' E 004°54'0 0.0
2018-Apr-17 12:53N 43°26' E 004°54'2 5.7
2018-Apr-17 12:30N 43°24' E 004°56'3 5.2
2018-Apr-17 12:00N 43°24' E 004°59'1 2.7
2018-Apr-17 11:30N 43°23' E 004°57'3 1.5
2018-Apr-17 09:17N 43°26' E 004°54'1 2.5
2018-Apr-17 09:00N 43°25' E 004°53'0 0.8
2018-Apr-17 08:30N 43°25' E 004°53'1 1.4
2018-Apr-17 07:42N 43°26' E 004°54'0 0.0
2018-Apr-17 07:29N 43°26' E 004°54'2 3.4
2018-Apr-17 07:01N 43°24' E 004°54'1 1.4
2018-Apr-17 06:27N 43°25' E 004°54'0 0.3
2018-Apr-17 06:00N 43°25' E 004°54'1 0.6
2018-Apr-17 04:12N 43°26' E 004°54'0 0.0
2018-Apr-17 03:59N 43°26' E 004°54'0 0.0
2018-Apr-17 01:37N 43°26' E 004°54'0 0.0
2018-Apr-17 01:27N 43°26' E 004°54'0 0.0
2018-Apr-17 00:48N 43°26' E 004°54'0 0.0
2018-Apr-17 00:30N 43°26' E 004°54'1 2.5
2018-Apr-17 00:00N 43°24' E 004°53'0 0.0
2018-Apr-16 23:30N 43°24' E 004°53'1 1.5
2018-Apr-16 23:00N 43°24' E 004°54'1 2.5
2018-Apr-16 22:30N 43°24' E 004°56'2 3.7
2018-Apr-16 22:00N 43°24' E 004°53'0 0.3
2018-Apr-16 21:30N 43°24' E 004°53'0 0.1
2018-Apr-16 21:00N 43°24' E 004°53'1 2.0
2018-Apr-16 20:21N 43°26' E 004°54'0 0.0
2018-Apr-16 19:56N 43°26' E 004°54'0 0.0
2018-Apr-16 19:30N 43°26' E 004°54'0 0.0
2018-Apr-16 19:00N 43°26' E 004°54'0 0.0
2018-Apr-16 18:29N 43°26' E 004°54'0 0.0
2018-Apr-16 18:00N 43°26' E 004°54'0 0.0
2018-Apr-16 17:30N 43°26' E 004°54'0 0.0
2018-Apr-16 16:59N 43°26' E 004°54'0 0.0
2018-Apr-16 14:54N 43°26' E 004°54'0 0.0
2018-Apr-16 14:28N 43°26' E 004°54'1 2.8
2018-Apr-16 13:57N 43°24' E 004°53'2 3.3
2018-Apr-16 13:30N 43°24' E 004°51'1 1.2
2018-Apr-16 13:00N 43°24' E 004°52'1 2.0
2018-Apr-16 12:30N 43°24' E 004°53'0 0.1
2018-Apr-16 12:00N 43°24' E 004°53'2 3.7
2018-Apr-16 11:31N 43°24' E 004°51'0 0.6
2018-Apr-16 11:00N 43°24' E 004°51'3 4.5
2018-Apr-16 10:23N 43°26' E 004°54'0 0.0
2018-Apr-16 09:48N 43°26' E 004°54'0 0.0
2018-Apr-16 09:30N 43°26' E 004°54'0 0.0
2018-Apr-16 08:59N 43°26' E 004°54'0 0.0
2018-Apr-16 08:30N 43°26' E 004°54'0 0.0
2018-Apr-16 08:00N 43°26' E 004°54'1 2.2
2018-Apr-16 07:30N 43°25' E 004°54'0 0.5
2018-Apr-16 06:56N 43°25' E 004°54'1 1.2
2018-Apr-16 06:30N 43°24' E 004°54'4 7.3
2018-Apr-16 06:00N 43°24' E 004°59'0 0.2
2018-Apr-16 05:30N 43°24' E 004°59'0 0.0
2018-Apr-16 05:00N 43°24' E 004°59'0 0.0
2018-Apr-16 04:30N 43°24' E 004°59'  
Track history (hours):
 
Tides and Currents Weather Stations Pressure Air Temp Water Temp Dewpoint Dewpoint Depression Visibility Wind Speed Wind Dir Waves Ship Positions

Marseillais 6

Last reported at 2018-Apr-26 04:00 UTC. Time now 2018-Apr-26 03:59 UTC.
Position N 43°24' E 004°59'.

Length 35 m; draft 5 m.

Type: Tug. MMSI: 227016900.

Date/timePositionNaut miles runAvg speedWind from/ knotsBaromVisibWave heightAir tempDewpointWater temp
2018-Apr-26 04:00N 43°24' E 004°59'0 0.0
2018-Apr-26 03:30N 43°24' E 004°59'0 0.0
2018-Apr-26 03:00N 43°24' E 004°59'0 0.0
2018-Apr-26 02:30N 43°24' E 004°59'0 0.0
2018-Apr-26 02:00N 43°24' E 004°59'0 0.0
2018-Apr-26 01:30N 43°24' E 004°59'0 0.0
2018-Apr-26 01:00N 43°24' E 004°59'0 0.0
2018-Apr-26 00:30N 43°24' E 004°59'0 0.0
2018-Apr-26 00:00N 43°24' E 004°59'0 0.0
2018-Apr-25 23:30N 43°24' E 004°59'0 0.0
2018-Apr-25 23:00N 43°24' E 004°59'0 0.0
2018-Apr-25 22:30N 43°24' E 004°59'0 0.0
2018-Apr-25 22:00N 43°24' E 004°59'0 0.0
2018-Apr-25 21:30N 43°24' E 004°59'0 0.0
2018-Apr-25 21:00N 43°24' E 004°59'0 0.0
2018-Apr-25 20:30N 43°24' E 004°59'0 0.0
2018-Apr-25 20:00N 43°24' E 004°59'1 2.8
2018-Apr-25 19:30N 43°24' E 004°57'5 9.0
2018-Apr-25 18:59N 43°25' E 004°51'0 0.2
2018-Apr-25 18:28N 43°25' E 004°51'0 0.0
2018-Apr-25 18:00N 43°25' E 004°51'510.8
2018-Apr-25 17:30N 43°24' E 004°58'1 2.2
2018-Apr-25 17:00N 43°24' E 004°60'0 0.7
2018-Apr-25 16:30N 43°24' E 004°59'0 0.0
2018-Apr-25 16:00N 43°24' E 004°59'0 0.0
2018-Apr-25 15:30N 43°24' E 004°59'4 8.5
2018-Apr-25 15:00N 43°24' E 004°53'2 3.4
2018-Apr-25 14:30N 43°25' E 004°51'0 0.1
2018-Apr-25 14:00N 43°25' E 004°51'4 8.5
2018-Apr-25 13:30N 43°24' E 004°57'2 3.0
2018-Apr-25 12:58N 43°24' E 004°59'0 0.0
2018-Apr-25 12:30N 43°24' E 004°59'0 0.0
2018-Apr-25 12:00N 43°24' E 004°59'0 0.0
2018-Apr-25 11:30N 43°24' E 004°59'0 0.0
2018-Apr-25 11:00N 43°24' E 004°59'1 1.0
2018-Apr-25 10:28N 43°23' E 004°59'1 1.7
2018-Apr-25 10:00N 43°24' E 004°60'0 0.7
2018-Apr-25 09:28N 43°24' E 004°59'0 0.0
2018-Apr-25 09:00N 43°24' E 004°59'0 0.0
2018-Apr-25 08:30N 43°24' E 004°59'0 0.0
2018-Apr-25 07:53N 43°24' E 004°59'0 0.0
2018-Apr-25 07:30N 43°24' E 004°59'0 0.0
2018-Apr-25 07:00N 43°24' E 004°59'0 0.0
2018-Apr-25 06:30N 43°24' E 004°59'0 0.0
2018-Apr-25 05:59N 43°24' E 004°59'0 0.0
2018-Apr-25 05:27N 43°24' E 004°59'0 0.0
2018-Apr-25 05:00N 43°24' E 004°59'0 0.0
2018-Apr-25 04:30N 43°24' E 004°59'0 0.0
2018-Apr-25 04:00N 43°24' E 004°59'0 0.0
2018-Apr-25 03:30N 43°24' E 004°59'0 0.0
2018-Apr-25 03:00N 43°24' E 004°59'0 0.0
2018-Apr-25 02:30N 43°24' E 004°59'0 0.0
2018-Apr-25 02:00N 43°24' E 004°59'0 0.0
2018-Apr-25 01:30N 43°24' E 004°59'0 0.0
2018-Apr-25 01:00N 43°24' E 004°59'0 0.0
2018-Apr-25 00:30N 43°24' E 004°59'0 0.0
2018-Apr-25 00:00N 43°24' E 004°59'0 0.0
2018-Apr-24 23:30N 43°24' E 004°59'0 0.0
2018-Apr-24 23:00N 43°24' E 004°59'0 0.0
2018-Apr-24 22:30N 43°24' E 004°59'0 0.0
2018-Apr-24 22:00N 43°24' E 004°59'0 0.0
2018-Apr-24 21:29N 43°24' E 004°59'0 0.0
2018-Apr-24 21:00N 43°24' E 004°59'0 0.0
2018-Apr-24 20:30N 43°24' E 004°59'0 0.0
2018-Apr-24 20:00N 43°24' E 004°59'0 0.0
2018-Apr-24 19:30N 43°24' E 004°59'0 0.0
2018-Apr-24 19:00N 43°24' E 004°59'0 0.0
2018-Apr-24 18:28N 43°24' E 004°59'0 0.0
2018-Apr-24 18:00N 43°24' E 004°59'0 0.0
2018-Apr-24 17:30N 43°24' E 004°59'0 0.0
2018-Apr-24 17:00N 43°24' E 004°59'0 0.0
2018-Apr-24 16:28N 43°24' E 004°59'1 1.2
2018-Apr-24 16:00N 43°24' E 004°60'0 0.2
2018-Apr-24 15:30N 43°24' E 004°60'1 1.7
2018-Apr-24 15:00N 43°23' E 004°59'0 0.9
2018-Apr-24 14:30N 43°24' E 004°59'0 0.0
2018-Apr-24 14:00N 43°24' E 004°59'0 0.0
2018-Apr-24 13:30N 43°24' E 004°59'0 0.0
2018-Apr-24 13:00N 43°24' E 004°59'0 0.0
2018-Apr-24 12:30N 43°24' E 004°59'0 0.0
2018-Apr-24 11:59N 43°24' E 004°59'0 0.0
2018-Apr-24 11:30N 43°24' E 004°59'0 0.0
2018-Apr-24 11:00N 43°24' E 004°59'0 0.0
2018-Apr-24 10:30N 43°24' E 004°59'0 0.0
2018-Apr-24 09:58N 43°24' E 004°59'0 0.0
2018-Apr-24 09:29N 43°24' E 004°59'0 0.0
2018-Apr-24 09:00N 43°24' E 004°59'0 0.0
2018-Apr-24 08:30N 43°24' E 004°59'0 0.0
2018-Apr-24 08:00N 43°24' E 004°59'0 0.0
2018-Apr-24 07:29N 43°24' E 004°59'0 0.0
2018-Apr-24 06:59N 43°24' E 004°59'0 0.0
2018-Apr-24 06:30N 43°24' E 004°59'0 0.0
2018-Apr-24 06:00N 43°24' E 004°59'1 1.2
2018-Apr-24 05:30N 43°23' E 004°59'1 1.9
2018-Apr-24 04:59N 43°24' E 004°60'3 6.8
2018-Apr-24 04:30N 43°24' E 004°55'2 3.4
2018-Apr-24 03:54N 43°26' E 004°54'0 0.0
2018-Apr-24 03:28N 43°26' E 004°54'0 0.0
2018-Apr-24 03:00N 43°26' E 004°54'0 0.0
2018-Apr-24 02:30N 43°26' E 004°54'0 0.0
2018-Apr-24 02:00N 43°26' E 004°54'0 0.0
2018-Apr-24 01:29N 43°26' E 004°54'0 0.0
2018-Apr-24 00:54N 43°26' E 004°54'0 0.0
2018-Apr-24 00:28N 43°26' E 004°54'0 0.0
2018-Apr-23 23:49N 43°26' E 004°54'0 0.0
2018-Apr-23 23:28N 43°26' E 004°54'0 0.0
2018-Apr-23 22:21N 43°26' E 004°54'0 0.0
2018-Apr-23 22:00N 43°26' E 004°54'0 0.0
2018-Apr-23 21:24N 43°26' E 004°54'0 0.0
2018-Apr-23 20:59N 43°26' E 004°54'0 0.0
2018-Apr-23 20:26N 43°26' E 004°54'0 0.0
2018-Apr-23 19:56N 43°26' E 004°54'0 0.0
2018-Apr-23 19:29N 43°26' E 004°54'0 0.0
2018-Apr-23 18:54N 43°26' E 004°54'0 0.0
2018-Apr-23 18:26N 43°26' E 004°54'0 0.0
2018-Apr-23 17:53N 43°26' E 004°54'0 0.0
2018-Apr-23 17:30N 43°26' E 004°54'0 0.0
2018-Apr-23 16:42N 43°26' E 004°54'0 0.0
2018-Apr-23 16:19N 43°26' E 004°54'0 0.0
2018-Apr-23 14:03N 43°26' E 004°54'0 0.0
2018-Apr-23 13:56N 43°26' E 004°54'0 0.0
2018-Apr-23 12:33N 43°26' E 004°54'0 0.0
2018-Apr-23 12:26N 43°26' E 004°54'0 0.0
2018-Apr-23 10:33N 43°26' E 004°54'0 0.0
2018-Apr-23 10:17N 43°26' E 004°54'0 1.7
2018-Apr-23 10:00N 43°25' E 004°53'4 8.5
2018-Apr-23 09:30N 43°23' E 004°59'1 1.8
2018-Apr-23 09:00N 43°24' E 004°60'0 0.4
2018-Apr-23 08:30N 43°24' E 004°59'2 4.4
2018-Apr-23 08:00N 43°24' E 004°56'3 5.2
2018-Apr-23 07:31N 43°25' E 004°53'0 0.1
2018-Apr-23 06:59N 43°25' E 004°53'1 2.2
2018-Apr-23 06:30N 43°24' E 004°54'2 3.1
2018-Apr-23 06:00N 43°26' E 004°54'0 0.0
2018-Apr-23 05:29N 43°26' E 004°54'0 0.0
2018-Apr-23 04:55N 43°26' E 004°54'0 0.0
2018-Apr-23 04:28N 43°26' E 004°54'0 0.0
2018-Apr-23 04:00N 43°26' E 004°54'0 0.0
2018-Apr-23 03:29N 43°26' E 004°54'0 0.0
2018-Apr-23 03:00N 43°26' E 004°54'0 0.0
2018-Apr-23 02:30N 43°26' E 004°54'0 0.0
2018-Apr-23 02:00N 43°26' E 004°54'0 0.0
2018-Apr-23 01:30N 43°26' E 004°54'1 1.4
2018-Apr-23 01:00N 43°25' E 004°53'0 0.1
2018-Apr-23 00:30N 43°25' E 004°53'1 1.4
2018-Apr-23 00:00N 43°26' E 004°54'0 0.0
2018-Apr-22 23:27N 43°26' E 004°54'0 0.0
2018-Apr-22 22:56N 43°26' E 004°54'0 0.0
2018-Apr-22 22:20N 43°26' E 004°54'0 0.0
2018-Apr-22 21:59N 43°26' E 004°54'0 0.0
2018-Apr-22 21:29N 43°26' E 004°54'0 0.0
2018-Apr-22 19:52N 43°26' E 004°54'0 0.0
2018-Apr-22 19:30N 43°26' E 004°54'0 0.0
2018-Apr-22 18:34N 43°26' E 004°54'0 3.3
2018-Apr-22 18:30N 43°26' E 004°54'4 8.8
2018-Apr-22 18:00N 43°24' E 004°59'1 1.1
2018-Apr-22 17:30N 43°24' E 004°60'1 2.3
2018-Apr-22 17:00N 43°23' E 004°58'4 8.0
2018-Apr-22 16:30N 43°25' E 004°53'1 0.3
2018-Apr-22 13:25N 43°26' E 004°54'0 0.0
2018-Apr-22 11:50N 43°26' E 004°54'2 7.4
2018-Apr-22 11:30N 43°25' E 004°51'0 0.4
2018-Apr-22 10:59N 43°25' E 004°51'1 2.6
2018-Apr-22 10:30N 43°24' E 004°52'2 4.1
2018-Apr-22 10:00N 43°26' E 004°54'0 0.0
2018-Apr-22 09:16N 43°26' E 004°54'0 0.0
2018-Apr-22 08:57N 43°26' E 004°54'1 1.8
2018-Apr-22 08:30N 43°25' E 004°53'0 0.1
2018-Apr-22 08:00N 43°25' E 004°53'1 1.7
2018-Apr-22 07:30N 43°24' E 004°54'1 2.7
2018-Apr-22 06:58N 43°26' E 004°54'0 0.0
2018-Apr-22 06:30N 43°26' E 004°54'0 0.0
2018-Apr-22 06:00N 43°26' E 004°54'0 0.0
2018-Apr-22 05:26N 43°26' E 004°54'0 0.0
2018-Apr-22 05:00N 43°26' E 004°54'0 0.0
2018-Apr-22 04:30N 43°26' E 004°54'1 2.9
2018-Apr-22 04:00N 43°24' E 004°53'2 4.3
2018-Apr-22 03:30N 43°25' E 004°50'2 3.9
2018-Apr-22 02:59N 43°24' E 004°53'2 3.7
2018-Apr-22 02:29N 43°26' E 004°54'0 0.0
2018-Apr-22 02:00N 43°26' E 004°54'0 0.0
2018-Apr-22 01:30N 43°26' E 004°54'0 0.0
2018-Apr-22 01:00N 43°26' E 004°54'0 0.0
2018-Apr-22 00:27N 43°26' E 004°54'0 0.0
2018-Apr-21 23:57N 43°26' E 004°54'0 0.0
2018-Apr-21 23:27N 43°26' E 004°54'0 0.0
2018-Apr-21 23:00N 43°26' E 004°54'0 0.0
2018-Apr-21 22:30N 43°26' E 004°54'0 0.0
2018-Apr-21 22:00N 43°26' E 004°54'0 0.0
2018-Apr-21 21:30N 43°26' E 004°54'0 0.0
2018-Apr-21 20:59N 43°26' E 004°54'0 0.0
2018-Apr-21 20:30N 43°26' E 004°54'0 0.0
2018-Apr-21 20:00N 43°26' E 004°54'0 0.0
2018-Apr-21 19:30N 43°26' E 004°54'0 0.0
2018-Apr-21 18:59N 43°26' E 004°54'0 0.0
2018-Apr-21 18:29N 43°26' E 004°54'0 0.0
2018-Apr-21 18:00N 43°26' E 004°54'0 0.0
2018-Apr-21 17:28N 43°26' E 004°54'3 5.5
2018-Apr-21 17:00N 43°25' E 004°51'0 0.1
2018-Apr-21 16:26N 43°25' E 004°51'2 4.6
2018-Apr-21 16:00N 43°24' E 004°53'2 3.0
2018-Apr-21 15:29N 43°26' E 004°54'0 0.0
2018-Apr-21 15:00N 43°26' E 004°54'0 0.0
2018-Apr-21 14:30N 43°26' E 004°54'0 0.0
2018-Apr-21 13:59N 43°26' E 004°54'0 0.0
2018-Apr-21 13:29N 43°26' E 004°54'0 0.0
2018-Apr-21 13:00N 43°26' E 004°54'0 0.0
2018-Apr-21 12:30N 43°26' E 004°54'0 0.0
2018-Apr-21 12:00N 43°26' E 004°54'0 0.0
2018-Apr-21 11:30N 43°26' E 004°54'0 0.0
2018-Apr-21 11:00N 43°26' E 004°54'0 0.0
2018-Apr-21 10:30N 43°26' E 004°54'0 0.0
2018-Apr-21 10:00N 43°26' E 004°54'0 0.0
2018-Apr-21 09:30N 43°26' E 004°54'0 0.0
2018-Apr-21 08:58N 43°26' E 004°54'0 0.0
2018-Apr-21 08:27N 43°26' E 004°54'0 0.0
2018-Apr-21 07:31N 43°26' E 004°54'0 0.0
2018-Apr-21 07:17N 43°26' E 004°54'0 0.0
2018-Apr-21 07:00N 43°26' E 004°54'0 0.0
2018-Apr-21 06:29N 43°26' E 004°54'0 0.0
2018-Apr-21 05:56N 43°26' E 004°54'0 0.0
2018-Apr-21 05:30N 43°26' E 004°54'0 0.0
2018-Apr-21 05:00N 43°26' E 004°54'0 0.0
2018-Apr-21 04:30N 43°26' E 004°54'0 0.0
2018-Apr-21 03:48N 43°26' E 004°54'0 0.0
2018-Apr-21 03:27N 43°26' E 004°54'0 0.0
2018-Apr-21 03:00N 43°26' E 004°54'0 0.0
2018-Apr-21 02:30N 43°26' E 004°54'0 0.0
2018-Apr-21 01:56N 43°26' E 004°54'0 0.0
2018-Apr-21 01:30N 43°26' E 004°54'0 0.0
2018-Apr-21 01:00N 43°26' E 004°54'0 0.0
2018-Apr-21 00:30N 43°26' E 004°54'0 0.0
2018-Apr-20 23:57N 43°26' E 004°54'0 0.0
2018-Apr-20 23:24N 43°26' E 004°54'1 2.0
2018-Apr-20 23:00N 43°25' E 004°53'1 1.8
2018-Apr-20 22:30N 43°26' E 004°52'0 0.6
2018-Apr-20 22:00N 43°26' E 004°52'2 3.2
2018-Apr-20 21:30N 43°24' E 004°53'1 2.2
2018-Apr-20 21:00N 43°25' E 004°53'1 1.5
2018-Apr-20 20:30N 43°26' E 004°54'0 0.0
2018-Apr-20 19:38N 43°26' E 004°54'0 0.0
2018-Apr-20 19:27N 43°26' E 004°54'0 0.0
2018-Apr-20 19:00N 43°26' E 004°54'0 0.0
2018-Apr-20 18:28N 43°26' E 004°54'0 0.0
2018-Apr-20 17:57N 43°26' E 004°54'0 0.0
2018-Apr-20 17:30N 43°26' E 004°54'0 0.0
2018-Apr-20 16:33N 43°26' E 004°54'0 0.0
2018-Apr-20 16:04N 43°26' E 004°54'0 0.0
2018-Apr-20 15:58N 43°26' E 004°54'2 3.8
2018-Apr-20 15:30N 43°24' E 004°53'2 4.3
2018-Apr-20 15:00N 43°25' E 004°50'3 5.1
2018-Apr-20 14:30N 43°26' E 004°54'0 0.4
2018-Apr-20 13:57N 43°26' E 004°54'0 0.0
2018-Apr-20 13:30N 43°26' E 004°54'0 0.0
2018-Apr-20 12:58N 43°26' E 004°54'0 0.0
2018-Apr-20 12:30N 43°26' E 004°54'0 0.0
2018-Apr-20 12:00N 43°26' E 004°54'0 0.0
2018-Apr-20 11:29N 43°26' E 004°54'0 0.0
2018-Apr-20 10:58N 43°26' E 004°54'0 0.0
2018-Apr-20 10:30N 43°26' E 004°54'0 0.0
2018-Apr-20 09:47N 43°26' E 004°54'0 0.0
2018-Apr-20 09:30N 43°26' E 004°54'0 0.0
2018-Apr-20 08:58N 43°26' E 004°54'0 0.0
2018-Apr-20 08:28N 43°26' E 004°54'0 0.0
2018-Apr-20 07:57N 43°26' E 004°54'0 0.0
2018-Apr-20 07:30N 43°26' E 004°54'0 0.0
2018-Apr-20 07:00N 43°26' E 004°54'0 0.0
2018-Apr-20 06:28N 43°26' E 004°54'0 0.0
2018-Apr-20 06:00N 43°26' E 004°54'0 0.0
2018-Apr-20 05:07N 43°26' E 004°54'0 0.0
2018-Apr-20 04:58N 43°26' E 004°54'0 0.0
2018-Apr-20 04:29N 43°26' E 004°54'0 0.0
2018-Apr-20 03:47N 43°26' E 004°54'0 0.0
2018-Apr-20 03:29N 43°26' E 004°54'0 0.0
2018-Apr-20 02:56N 43°26' E 004°54'0 0.0
2018-Apr-20 02:28N 43°26' E 004°54'0 0.0
2018-Apr-20 01:57N 43°26' E 004°54'0 0.0
2018-Apr-20 01:25N 43°26' E 004°54'0 0.0
2018-Apr-20 01:00N 43°26' E 004°54'0 0.0
2018-Apr-20 00:30N 43°26' E 004°54'0 0.0
2018-Apr-20 00:00N 43°26' E 004°54'0 0.0
2018-Apr-19 23:30N 43°26' E 004°54'0 0.0
2018-Apr-19 23:00N 43°26' E 004°54'0 0.0
2018-Apr-19 22:30N 43°26' E 004°54'0 0.0
2018-Apr-19 21:58N 43°26' E 004°54'0 0.0
2018-Apr-19 21:30N 43°26' E 004°54'0 0.0
2018-Apr-19 20:59N 43°26' E 004°54'0 0.0
2018-Apr-19 20:26N 43°26' E 004°54'0 0.0
2018-Apr-19 19:56N 43°26' E 004°54'0 0.0
2018-Apr-19 19:27N 43°26' E 004°54'0 0.0
2018-Apr-19 18:59N 43°26' E 004°54'0 0.0
2018-Apr-19 18:30N 43°26' E 004°54'3 5.1
2018-Apr-19 17:59N 43°25' E 004°50'0 0.3
2018-Apr-19 17:30N 43°25' E 004°51'2 4.6
2018-Apr-19 17:00N 43°26' E 004°54'0 0.5
2018-Apr-19 16:28N 43°26' E 004°54'1 1.9
2018-Apr-19 16:00N 43°25' E 004°54'0 0.0
2018-Apr-19 15:30N 43°25' E 004°54'1 1.4
2018-Apr-19 15:00N 43°24' E 004°54'2 3.1
2018-Apr-19 14:30N 43°26' E 004°54'0 0.2
2018-Apr-19 13:55N 43°26' E 004°54'0 0.1
2018-Apr-19 13:30N 43°26' E 004°54'4 7.9
2018-Apr-19 12:59N 43°23' E 004°58'1 2.1
2018-Apr-19 12:30N 43°24' E 004°60'1 2.7
2018-Apr-19 12:00N 43°23' E 004°58'2 3.5
2018-Apr-19 11:30N 43°24' E 004°56'3 5.1
2018-Apr-19 11:00N 43°26' E 004°54'0 0.0
2018-Apr-19 10:27N 43°26' E 004°54'0 0.0
2018-Apr-19 09:59N 43°26' E 004°54'0 0.0
2018-Apr-19 09:30N 43°26' E 004°54'0 0.0
2018-Apr-19 09:00N 43°26' E 004°54'0 0.0
2018-Apr-19 08:30N 43°26' E 004°54'0 0.0
2018-Apr-19 07:59N 43°26' E 004°54'0 0.0
2018-Apr-19 07:29N 43°26' E 004°54'0 0.0
2018-Apr-19 07:00N 43°26' E 004°54'0 0.0
2018-Apr-19 06:30N 43°26' E 004°54'0 0.0
2018-Apr-19 06:00N 43°26' E 004°54'0 0.0
2018-Apr-19 05:30N 43°26' E 004°54'0 0.0
2018-Apr-19 05:00N 43°26' E 004°54'0 0.0
2018-Apr-19 04:30N 43°26' E 004°54'0 0.0
2018-Apr-19 04:01N 43°26' E 004°54'0 0.0
2018-Apr-19 03:30N 43°26' E 004°54'0 0.0
2018-Apr-19 03:00N 43°26' E 004°54'0 0.0
2018-Apr-19 02:30N 43°26' E 004°54'0 0.0
2018-Apr-19 02:00N 43°26' E 004°54'0 0.0
2018-Apr-19 01:30N 43°26' E 004°54'0 0.0
2018-Apr-19 01:00N 43°26' E 004°54'0 0.0
2018-Apr-19 00:30N 43°26' E 004°54'0 0.0
2018-Apr-19 00:00N 43°26' E 004°54'1 1.1
2018-Apr-18 23:30N 43°25' E 004°53'0 0.9
2018-Apr-18 23:00N 43°25' E 004°53'0 0.2
2018-Apr-18 22:30N 43°25' E 004°53'1 1.8
2018-Apr-18 21:57N 43°26' E 004°54'0 0.0
2018-Apr-18 21:30N 43°26' E 004°54'0 0.0
2018-Apr-18 21:00N 43°26' E 004°54'0 0.0
2018-Apr-18 20:30N 43°26' E 004°54'0 0.0
2018-Apr-18 20:00N 43°26' E 004°54'0 0.0
2018-Apr-18 19:30N 43°26' E 004°54'0 0.0
2018-Apr-18 19:00N 43°26' E 004°54'0 0.0
2018-Apr-18 18:28N 43°26' E 004°54'0 0.0
2018-Apr-18 18:00N 43°26' E 004°54'0 0.0
2018-Apr-18 16:39N 43°26' E 004°54'0 0.0
2018-Apr-18 16:30N 43°26' E 004°54'0 0.0
2018-Apr-18 15:54N 43°26' E 004°54'0 0.0
2018-Apr-18 15:29N 43°26' E 004°54'1 2.4
2018-Apr-18 15:00N 43°25' E 004°54'0 0.9
2018-Apr-18 14:30N 43°24' E 004°54'2 0.6
2018-Apr-18 12:06N 43°26' E 004°54'0 0.0
2018-Apr-18 11:54N 43°26' E 004°54'0 0.0
2018-Apr-18 11:30N 43°26' E 004°54'0 0.0
2018-Apr-18 10:58N 43°26' E 004°54'0 0.0
2018-Apr-18 10:29N 43°26' E 004°54'0 0.0
2018-Apr-18 10:00N 43°26' E 004°54'0 0.0
2018-Apr-18 09:30N 43°26' E 004°54'0 0.0
2018-Apr-18 08:59N 43°26' E 004°54'0 0.0
2018-Apr-18 08:29N 43°26' E 004°54'0 0.0
2018-Apr-18 07:44N 43°26' E 004°54'0 0.0
2018-Apr-18 07:26N 43°26' E 004°54'0 0.0
2018-Apr-18 06:59N 43°26' E 004°54'0 0.0
2018-Apr-18 06:30N 43°26' E 004°54'0 0.0
2018-Apr-18 06:00N 43°26' E 004°54'0 0.0
2018-Apr-18 05:30N 43°26' E 004°54'0 0.0
2018-Apr-18 05:00N 43°26' E 004°54'0 0.0
2018-Apr-18 04:30N 43°26' E 004°54'0 0.0
2018-Apr-18 04:00N 43°26' E 004°54'0 0.0
2018-Apr-18 03:30N 43°26' E 004°54'0 0.0
2018-Apr-18 03:00N 43°26' E 004°54'0 0.0
2018-Apr-18 02:30N 43°26' E 004°54'0 0.0
2018-Apr-18 01:59N 43°26' E 004°54'2 4.4
2018-Apr-18 01:30N 43°24' E 004°52'1 1.6
2018-Apr-18 01:01N 43°25' E 004°51'2 4.6
2018-Apr-18 00:30N 43°26' E 004°54'0 0.4
2018-Apr-17 23:59N 43°26' E 004°54'0 0.0
2018-Apr-17 23:30N 43°26' E 004°54'0 0.0
2018-Apr-17 23:00N 43°26' E 004°54'0 0.0
2018-Apr-17 22:30N 43°26' E 004°54'0 0.0
2018-Apr-17 22:00N 43°26' E 004°54'0 0.0
2018-Apr-17 21:30N 43°26' E 004°54'0 0.0
2018-Apr-17 21:00N 43°26' E 004°54'0 0.0
2018-Apr-17 20:30N 43°26' E 004°54'2 4.5
2018-Apr-17 20:00N 43°24' E 004°51'1 2.4
2018-Apr-17 19:30N 43°25' E 004°50'2 3.7
2018-Apr-17 19:00N 43°24' E 004°52'2 3.9
2018-Apr-17 18:29N 43°26' E 004°54'0 0.0
2018-Apr-17 18:00N 43°26' E 004°54'0 0.0
2018-Apr-17 17:29N 43°26' E 004°54'0 0.0
2018-Apr-17 16:18N 43°26' E 004°54'0 0.0
2018-Apr-17 15:57N 43°26' E 004°54'0 0.0
2018-Apr-17 15:20N 43°26' E 004°54'1 4.5
2018-Apr-17 15:00N 43°24' E 004°53'1 1.3
2018-Apr-17 14:30N 43°25' E 004°53'0 0.1
2018-Apr-17 14:00N 43°25' E 004°53'1 2.1
2018-Apr-17 13:30N 43°26' E 004°54'0 0.0
2018-Apr-17 12:53N 43°26' E 004°54'2 5.7
2018-Apr-17 12:30N 43°24' E 004°56'3 5.2
2018-Apr-17 12:00N 43°24' E 004°59'1 2.7
2018-Apr-17 11:30N 43°23' E 004°57'3 1.5
2018-Apr-17 09:17N 43°26' E 004°54'1 2.5
2018-Apr-17 09:00N 43°25' E 004°53'0 0.8
2018-Apr-17 08:30N 43°25' E 004°53'1 1.4
2018-Apr-17 07:42N 43°26' E 004°54'0 0.0
2018-Apr-17 07:29N 43°26' E 004°54'2 3.4
2018-Apr-17 07:01N 43°24' E 004°54'1 1.4
2018-Apr-17 06:27N 43°25' E 004°54'0 0.3
2018-Apr-17 06:00N 43°25' E 004°54'1 0.6
2018-Apr-17 04:12N 43°26' E 004°54'0 0.0
2018-Apr-17 03:59N 43°26' E 004°54'0 0.0
2018-Apr-17 01:37N 43°26' E 004°54'0 0.0
2018-Apr-17 01:27N 43°26' E 004°54'0 0.0
2018-Apr-17 00:48N 43°26' E 004°54'0 0.0
2018-Apr-17 00:30N 43°26' E 004°54'1 2.5
2018-Apr-17 00:00N 43°24' E 004°53'0 0.0
2018-Apr-16 23:30N 43°24' E 004°53'1 1.5
2018-Apr-16 23:00N 43°24' E 004°54'1 2.5
2018-Apr-16 22:30N 43°24' E 004°56'2 3.7
2018-Apr-16 22:00N 43°24' E 004°53'0 0.3
2018-Apr-16 21:30N 43°24' E 004°53'0 0.1
2018-Apr-16 21:00N 43°24' E 004°53'1 2.0
2018-Apr-16 20:21N 43°26' E 004°54'0 0.0
2018-Apr-16 19:56N 43°26' E 004°54'0 0.0
2018-Apr-16 19:30N 43°26' E 004°54'0 0.0
2018-Apr-16 19:00N 43°26' E 004°54'0 0.0
2018-Apr-16 18:29N 43°26' E 004°54'0 0.0
2018-Apr-16 18:00N 43°26' E 004°54'0 0.0
2018-Apr-16 17:30N 43°26' E 004°54'0 0.0
2018-Apr-16 16:59N 43°26' E 004°54'0 0.0
2018-Apr-16 14:54N 43°26' E 004°54'0 0.0
2018-Apr-16 14:28N 43°26' E 004°54'1 2.8
2018-Apr-16 13:57N 43°24' E 004°53'2 3.3
2018-Apr-16 13:30N 43°24' E 004°51'1 1.2
2018-Apr-16 13:00N 43°24' E 004°52'1 2.0
2018-Apr-16 12:30N 43°24' E 004°53'0 0.1
2018-Apr-16 12:00N 43°24' E 004°53'2 3.7
2018-Apr-16 11:31N 43°24' E 004°51'0 0.6
2018-Apr-16 11:00N 43°24' E 004°51'3 4.5
2018-Apr-16 10:23N 43°26' E 004°54'0 0.0
2018-Apr-16 09:48N 43°26' E 004°54'0 0.0
2018-Apr-16 09:30N 43°26' E 004°54'0 0.0
2018-Apr-16 08:59N 43°26' E 004°54'0 0.0
2018-Apr-16 08:30N 43°26' E 004°54'0 0.0
2018-Apr-16 08:00N 43°26' E 004°54'1 2.2
2018-Apr-16 07:30N 43°25' E 004°54'0 0.5
2018-Apr-16 06:56N 43°25' E 004°54'1 1.2
2018-Apr-16 06:30N 43°24' E 004°54'4 7.3
2018-Apr-16 06:00N 43°24' E 004°59'0 0.2
2018-Apr-16 05:30N 43°24' E 004°59'0 0.0
2018-Apr-16 05:00N 43°24' E 004°59'0 0.0
2018-Apr-16 04:30N 43°24' E 004°59'  

Dump ship's entire track history